sensor_id;sensor_type;location;lat;lon;timestamp;temperature;humidity
17887;DHT22;9069;52.044;7.472;2023-07-13T00:01:53;21.70;70.70
17887;DHT22;9069;52.044;7.472;2023-07-13T00:04:23;21.70;70.80
17887;DHT22;9069;52.044;7.472;2023-07-13T00:06:52;21.60;71.10
17887;DHT22;9069;52.044;7.472;2023-07-13T00:09:20;21.60;71.00
17887;DHT22;9069;52.044;7.472;2023-07-13T00:11:51;21.60;71.20
17887;DHT22;9069;52.044;7.472;2023-07-13T00:14:19;21.60;71.60
17887;DHT22;9069;52.044;7.472;2023-07-13T00:16:46;21.50;71.10
17887;DHT22;9069;52.044;7.472;2023-07-13T00:19:14;21.50;71.10
17887;DHT22;9069;52.044;7.472;2023-07-13T00:21:41;21.50;71.10
17887;DHT22;9069;52.044;7.472;2023-07-13T00:24:11;21.50;71.30
17887;DHT22;9069;52.044;7.472;2023-07-13T00:26:40;21.40;71.40
17887;DHT22;9069;52.044;7.472;2023-07-13T00:29:08;21.40;72.20
17887;DHT22;9069;52.044;7.472;2023-07-13T00:31:36;21.40;71.40
17887;DHT22;9069;52.044;7.472;2023-07-13T00:34:04;21.30;71.40
17887;DHT22;9069;52.044;7.472;2023-07-13T00:36:31;21.30;71.50
17887;DHT22;9069;52.044;7.472;2023-07-13T00:38:58;21.30;71.60
17887;DHT22;9069;52.044;7.472;2023-07-13T00:41:25;21.30;71.60
17887;DHT22;9069;52.044;7.472;2023-07-13T00:43:52;21.20;71.60
17887;DHT22;9069;52.044;7.472;2023-07-13T00:46:21;21.20;71.60
17887;DHT22;9069;52.044;7.472;2023-07-13T00:48:49;21.20;71.80
17887;DHT22;9069;52.044;7.472;2023-07-13T00:51:20;21.20;72.00
17887;DHT22;9069;52.044;7.472;2023-07-13T00:53:48;21.20;72.20
17887;DHT22;9069;52.044;7.472;2023-07-13T00:56:16;21.20;72.10
17887;DHT22;9069;52.044;7.472;2023-07-13T00:58:44;21.20;72.20
17887;DHT22;9069;52.044;7.472;2023-07-13T01:01:11;21.20;72.30
17887;DHT22;9069;52.044;7.472;2023-07-13T01:03:40;21.10;72.40
17887;DHT22;9069;52.044;7.472;2023-07-13T01:06:08;21.10;72.60
17887;DHT22;9069;52.044;7.472;2023-07-13T01:08:35;21.10;72.70
17887;DHT22;9069;52.044;7.472;2023-07-13T01:11:02;21.10;72.90
17887;DHT22;9069;52.044;7.472;2023-07-13T01:13:29;21.10;73.00
17887;DHT22;9069;52.044;7.472;2023-07-13T01:15:58;21.00;73.00
17887;DHT22;9069;52.044;7.472;2023-07-13T01:18:28;21.00;73.20
17887;DHT22;9069;52.044;7.472;2023-07-13T01:21:01;21.00;73.30
17887;DHT22;9069;52.044;7.472;2023-07-13T01:23:29;20.90;73.60
17887;DHT22;9069;52.044;7.472;2023-07-13T01:25:57;20.90;73.40
17887;DHT22;9069;52.044;7.472;2023-07-13T01:28:25;20.90;73.50
17887;DHT22;9069;52.044;7.472;2023-07-13T01:30:54;20.80;73.70
17887;DHT22;9069;52.044;7.472;2023-07-13T01:33:22;20.90;73.90
17887;DHT22;9069;52.044;7.472;2023-07-13T01:35:49;20.80;73.90
17887;DHT22;9069;52.044;7.472;2023-07-13T01:38:19;20.80;74.00
17887;DHT22;9069;52.044;7.472;2023-07-13T01:40:46;20.70;74.10
17887;DHT22;9069;52.044;7.472;2023-07-13T01:43:13;20.70;74.10
17887;DHT22;9069;52.044;7.472;2023-07-13T01:45:40;20.70;74.20
17887;DHT22;9069;52.044;7.472;2023-07-13T01:48:09;20.70;74.30
17887;DHT22;9069;52.044;7.472;2023-07-13T01:50:36;20.60;74.30
17887;DHT22;9069;52.044;7.472;2023-07-13T01:53:04;20.70;74.40
17887;DHT22;9069;52.044;7.472;2023-07-13T01:55:31;20.60;74.50
17887;DHT22;9069;52.044;7.472;2023-07-13T01:57:58;20.60;75.30
17887;DHT22;9069;52.044;7.472;2023-07-13T02:00:25;20.50;74.50
17887;DHT22;9069;52.044;7.472;2023-07-13T02:02:54;20.50;74.50
17887;DHT22;9069;52.044;7.472;2023-07-13T02:05:21;20.50;74.60
17887;DHT22;9069;52.044;7.472;2023-07-13T02:07:48;20.50;74.70
17887;DHT22;9069;52.044;7.472;2023-07-13T02:10:16;20.50;74.80
17887;DHT22;9069;52.044;7.472;2023-07-13T02:12:43;20.40;74.80
17887;DHT22;9069;52.044;7.472;2023-07-13T02:15:10;20.50;74.80
17887;DHT22;9069;52.044;7.472;2023-07-13T02:17:37;20.50;74.80
17887;DHT22;9069;52.044;7.472;2023-07-13T02:20:05;20.40;74.80
17887;DHT22;9069;52.044;7.472;2023-07-13T02:22:32;20.40;75.00
17887;DHT22;9069;52.044;7.472;2023-07-13T02:24:59;20.40;75.00
17887;DHT22;9069;52.044;7.472;2023-07-13T02:27:26;20.40;75.10
17887;DHT22;9069;52.044;7.472;2023-07-13T02:29:53;20.30;75.00
17887;DHT22;9069;52.044;7.472;2023-07-13T02:32:21;20.30;75.20
17887;DHT22;9069;52.044;7.472;2023-07-13T02:34:51;20.30;75.40
17887;DHT22;9069;52.044;7.472;2023-07-13T02:37:18;20.30;75.50
17887;DHT22;9069;52.044;7.472;2023-07-13T02:39:45;20.20;75.40
17887;DHT22;9069;52.044;7.472;2023-07-13T02:42:12;20.20;75.60
17887;DHT22;9069;52.044;7.472;2023-07-13T02:44:39;20.20;75.80
17887;DHT22;9069;52.044;7.472;2023-07-13T02:47:06;20.20;75.70
17887;DHT22;9069;52.044;7.472;2023-07-13T02:49:33;20.20;76.00
17887;DHT22;9069;52.044;7.472;2023-07-13T02:52:00;20.20;76.20
17887;DHT22;9069;52.044;7.472;2023-07-13T02:54:27;20.10;76.20
17887;DHT22;9069;52.044;7.472;2023-07-13T02:56:54;20.10;76.40
17887;DHT22;9069;52.044;7.472;2023-07-13T02:59:21;20.10;76.40
17887;DHT22;9069;52.044;7.472;2023-07-13T03:01:48;20.10;76.60
17887;DHT22;9069;52.044;7.472;2023-07-13T03:04:15;20.00;76.60
17887;DHT22;9069;52.044;7.472;2023-07-13T03:06:46;20.00;76.70
17887;DHT22;9069;52.044;7.472;2023-07-13T03:09:13;20.00;76.70
17887;DHT22;9069;52.044;7.472;2023-07-13T03:11:45;19.90;76.80
17887;DHT22;9069;52.044;7.472;2023-07-13T03:14:23;19.90;76.80
17887;DHT22;9069;52.044;7.472;2023-07-13T03:16:50;19.90;77.00
17887;DHT22;9069;52.044;7.472;2023-07-13T03:19:21;19.90;77.20
17887;DHT22;9069;52.044;7.472;2023-07-13T03:21:50;19.90;77.40
17887;DHT22;9069;52.044;7.472;2023-07-13T03:24:17;19.80;77.40
17887;DHT22;9069;52.044;7.472;2023-07-13T03:26:44;19.80;77.50
17887;DHT22;9069;52.044;7.472;2023-07-13T03:29:10;19.80;77.70
17887;DHT22;9069;52.044;7.472;2023-07-13T03:31:38;19.80;77.80
17887;DHT22;9069;52.044;7.472;2023-07-13T03:34:05;19.70;78.00
17887;DHT22;9069;52.044;7.472;2023-07-13T03:36:32;19.70;78.10
17887;DHT22;9069;52.044;7.472;2023-07-13T03:39:04;19.70;78.20
17887;DHT22;9069;52.044;7.472;2023-07-13T03:41:39;19.70;78.30
17887;DHT22;9069;52.044;7.472;2023-07-13T03:44:07;19.60;78.40
17887;DHT22;9069;52.044;7.472;2023-07-13T03:46:34;19.60;78.60
17887;DHT22;9069;52.044;7.472;2023-07-13T03:49:01;19.60;78.80
17887;DHT22;9069;52.044;7.472;2023-07-13T03:51:28;19.60;78.90
17887;DHT22;9069;52.044;7.472;2023-07-13T03:53:55;19.50;78.80
17887;DHT22;9069;52.044;7.472;2023-07-13T03:56:23;19.50;79.00
17887;DHT22;9069;52.044;7.472;2023-07-13T03:58:50;19.50;79.10
17887;DHT22;9069;52.044;7.472;2023-07-13T04:01:21;19.50;79.30
17887;DHT22;9069;52.044;7.472;2023-07-13T04:03:48;19.50;79.70
17887;DHT22;9069;52.044;7.472;2023-07-13T04:06:19;19.50;79.50
17887;DHT22;9069;52.044;7.472;2023-07-13T04:08:52;19.50;79.80
17887;DHT22;9069;52.044;7.472;2023-07-13T04:11:20;19.50;80.10
17887;DHT22;9069;52.044;7.472;2023-07-13T04:13:48;19.50;80.10
17887;DHT22;9069;52.044;7.472;2023-07-13T04:16:17;19.50;80.10
17887;DHT22;9069;52.044;7.472;2023-07-13T04:18:45;19.50;80.40
17887;DHT22;9069;52.044;7.472;2023-07-13T04:21:13;19.50;80.50
17887;DHT22;9069;52.044;7.472;2023-07-13T04:23:40;19.50;80.60
17887;DHT22;9069;52.044;7.472;2023-07-13T04:26:08;19.50;80.70
17887;DHT22;9069;52.044;7.472;2023-07-13T04:28:35;19.50;81.00
17887;DHT22;9069;52.044;7.472;2023-07-13T04:31:02;19.50;81.10
17887;DHT22;9069;52.044;7.472;2023-07-13T04:33:30;19.50;81.20
17887;DHT22;9069;52.044;7.472;2023-07-13T04:35:57;19.50;81.20
17887;DHT22;9069;52.044;7.472;2023-07-13T04:38:26;19.50;81.30
17887;DHT22;9069;52.044;7.472;2023-07-13T04:40:56;19.60;81.80
17887;DHT22;9069;52.044;7.472;2023-07-13T04:43:24;19.60;82.10
17887;DHT22;9069;52.044;7.472;2023-07-13T04:45:52;19.70;82.30
17887;DHT22;9069;52.044;7.472;2023-07-13T04:48:19;19.70;82.50
17887;DHT22;9069;52.044;7.472;2023-07-13T04:50:47;19.80;82.70
17887;DHT22;9069;52.044;7.472;2023-07-13T04:53:14;19.80;82.70
17887;DHT22;9069;52.044;7.472;2023-07-13T04:55:41;19.90;82.60
17887;DHT22;9069;52.044;7.472;2023-07-13T04:58:07;20.00;82.40
17887;DHT22;9069;52.044;7.472;2023-07-13T05:00:34;20.00;82.30
17887;DHT22;9069;52.044;7.472;2023-07-13T05:03:02;20.10;82.40
17887;DHT22;9069;52.044;7.472;2023-07-13T05:05:29;20.10;82.50
17887;DHT22;9069;52.044;7.472;2023-07-13T05:07:56;20.20;82.50
17887;DHT22;9069;52.044;7.472;2023-07-13T05:10:23;20.30;82.80
17887;DHT22;9069;52.044;7.472;2023-07-13T05:12:50;20.40;83.00
17887;DHT22;9069;52.044;7.472;2023-07-13T05:15:22;20.50;83.00
17887;DHT22;9069;52.044;7.472;2023-07-13T05:17:49;20.60;83.00
17887;DHT22;9069;52.044;7.472;2023-07-13T05:20:18;20.70;82.90
17887;DHT22;9069;52.044;7.472;2023-07-13T05:22:45;20.80;82.90
17887;DHT22;9069;52.044;7.472;2023-07-13T05:25:15;20.90;82.90
17887;DHT22;9069;52.044;7.472;2023-07-13T05:27:42;21.00;82.90
17887;DHT22;9069;52.044;7.472;2023-07-13T05:30:12;21.20;82.90
17887;DHT22;9069;52.044;7.472;2023-07-13T05:32:39;21.30;82.80
17887;DHT22;9069;52.044;7.472;2023-07-13T05:35:06;21.40;82.50
17887;DHT22;9069;52.044;7.472;2023-07-13T05:37:33;21.50;82.10
17887;DHT22;9069;52.044;7.472;2023-07-13T05:40:00;21.60;81.60
17887;DHT22;9069;52.044;7.472;2023-07-13T05:42:27;21.80;81.60
17887;DHT22;9069;52.044;7.472;2023-07-13T05:44:54;21.90;81.30
17887;DHT22;9069;52.044;7.472;2023-07-13T05:47:21;22.00;81.20
17887;DHT22;9069;52.044;7.472;2023-07-13T05:49:47;22.10;80.80
17887;DHT22;9069;52.044;7.472;2023-07-13T05:52:14;22.20;80.60
17887;DHT22;9069;52.044;7.472;2023-07-13T05:54:41;22.30;80.30
17887;DHT22;9069;52.044;7.472;2023-07-13T05:57:08;22.40;80.00
17887;DHT22;9069;52.044;7.472;2023-07-13T05:59:35;22.50;79.90
17887;DHT22;9069;52.044;7.472;2023-07-13T06:02:02;22.60;79.80
17887;DHT22;9069;52.044;7.472;2023-07-13T06:04:29;22.70;79.50
17887;DHT22;9069;52.044;7.472;2023-07-13T06:06:56;22.80;79.20
17887;DHT22;9069;52.044;7.472;2023-07-13T06:09:23;22.90;78.90
17887;DHT22;9069;52.044;7.472;2023-07-13T06:11:50;23.00;78.50
17887;DHT22;9069;52.044;7.472;2023-07-13T06:14:17;23.10;78.20
17887;DHT22;9069;52.044;7.472;2023-07-13T06:16:44;23.20;78.00
17887;DHT22;9069;52.044;7.472;2023-07-13T06:19:11;23.40;77.90
17887;DHT22;9069;52.044;7.472;2023-07-13T06:21:37;23.50;77.70
17887;DHT22;9069;52.044;7.472;2023-07-13T06:24:04;23.70;77.50
17887;DHT22;9069;52.044;7.472;2023-07-13T06:26:31;23.80;77.10
17887;DHT22;9069;52.044;7.472;2023-07-13T06:28:58;24.00;76.70
17887;DHT22;9069;52.044;7.472;2023-07-13T06:31:25;24.10;76.40
17887;DHT22;9069;52.044;7.472;2023-07-13T06:33:52;24.30;76.20
17887;DHT22;9069;52.044;7.472;2023-07-13T06:36:19;24.50;75.70
17887;DHT22;9069;52.044;7.472;2023-07-13T06:38:46;24.60;75.10
17887;DHT22;9069;52.044;7.472;2023-07-13T06:41:13;24.80;74.60
17887;DHT22;9069;52.044;7.472;2023-07-13T06:43:40;25.00;74.00
17887;DHT22;9069;52.044;7.472;2023-07-13T06:46:07;25.20;73.30
17887;DHT22;9069;52.044;7.472;2023-07-13T06:48:34;25.30;72.70
17887;DHT22;9069;52.044;7.472;2023-07-13T06:51:02;25.50;72.20
17887;DHT22;9069;52.044;7.472;2023-07-13T06:53:29;25.70;71.60
17887;DHT22;9069;52.044;7.472;2023-07-13T06:55:56;25.80;71.20
17887;DHT22;9069;52.044;7.472;2023-07-13T06:58:23;26.00;71.00
17887;DHT22;9069;52.044;7.472;2023-07-13T07:00:51;26.20;70.50
17887;DHT22;9069;52.044;7.472;2023-07-13T07:03:18;26.40;69.90
17887;DHT22;9069;52.044;7.472;2023-07-13T07:05:45;26.60;69.40
17887;DHT22;9069;52.044;7.472;2023-07-13T07:08:13;26.70;68.70
17887;DHT22;9069;52.044;7.472;2023-07-13T07:10:40;26.90;68.30
17887;DHT22;9069;52.044;7.472;2023-07-13T07:13:07;27.00;67.60
17887;DHT22;9069;52.044;7.472;2023-07-13T07:15:35;27.20;67.40
17887;DHT22;9069;52.044;7.472;2023-07-13T07:18:02;27.30;67.00
17887;DHT22;9069;52.044;7.472;2023-07-13T07:20:29;27.40;66.60
17887;DHT22;9069;52.044;7.472;2023-07-13T07:22:57;27.60;66.30
17887;DHT22;9069;52.044;7.472;2023-07-13T07:25:24;27.80;66.10
17887;DHT22;9069;52.044;7.472;2023-07-13T07:27:51;27.90;65.40
17887;DHT22;9069;52.044;7.472;2023-07-13T07:30:20;28.00;65.10
17887;DHT22;9069;52.044;7.472;2023-07-13T07:32:50;28.10;64.80
17887;DHT22;9069;52.044;7.472;2023-07-13T07:35:20;28.30;64.50
17887;DHT22;9069;52.044;7.472;2023-07-13T07:37:47;28.40;64.20
17887;DHT22;9069;52.044;7.472;2023-07-13T07:40:17;28.50;63.90
17887;DHT22;9069;52.044;7.472;2023-07-13T07:42:47;28.60;63.60
17887;DHT22;9069;52.044;7.472;2023-07-13T07:45:14;28.70;63.50
17887;DHT22;9069;52.044;7.472;2023-07-13T07:47:41;28.80;63.30
17887;DHT22;9069;52.044;7.472;2023-07-13T07:50:09;28.90;63.20
17887;DHT22;9069;52.044;7.472;2023-07-13T07:52:36;29.00;62.90
17887;DHT22;9069;52.044;7.472;2023-07-13T07:55:07;29.20;62.80
17887;DHT22;9069;52.044;7.472;2023-07-13T07:57:37;29.40;62.20
17887;DHT22;9069;52.044;7.472;2023-07-13T08:00:07;29.50;62.80
17887;DHT22;9069;52.044;7.472;2023-07-13T08:02:40;29.70;62.50
17887;DHT22;9069;52.044;7.472;2023-07-13T08:05:27;29.90;62.00
17887;DHT22;9069;52.044;7.472;2023-07-13T08:07:57;30.10;61.40
17887;DHT22;9069;52.044;7.472;2023-07-13T08:10:24;30.30;60.70
17887;DHT22;9069;52.044;7.472;2023-07-13T08:12:51;30.40;60.20
17887;DHT22;9069;52.044;7.472;2023-07-13T08:15:21;30.50;59.90
17887;DHT22;9069;52.044;7.472;2023-07-13T08:17:49;30.70;59.80
17887;DHT22;9069;52.044;7.472;2023-07-13T08:20:16;30.80;59.60
17887;DHT22;9069;52.044;7.472;2023-07-13T08:22:43;31.00;59.30
17887;DHT22;9069;52.044;7.472;2023-07-13T08:25:10;31.20;59.20
17887;DHT22;9069;52.044;7.472;2023-07-13T08:27:37;31.40;58.80
17887;DHT22;9069;52.044;7.472;2023-07-13T08:30:04;31.50;58.60
17887;DHT22;9069;52.044;7.472;2023-07-13T08:32:32;31.60;58.10
17887;DHT22;9069;52.044;7.472;2023-07-13T08:34:59;31.70;57.70
17887;DHT22;9069;52.044;7.472;2023-07-13T08:37:25;31.80;56.90
17887;DHT22;9069;52.044;7.472;2023-07-13T08:39:52;31.80;56.60
17887;DHT22;9069;52.044;7.472;2023-07-13T08:42:27;31.80;56.70
17887;DHT22;9069;52.044;7.472;2023-07-13T08:47:54;32.00;56.50
17887;DHT22;9069;52.044;7.472;2023-07-13T08:50:35;32.00;56.10
17887;DHT22;9069;52.044;7.472;2023-07-13T08:56:14;32.00;55.70
17887;DHT22;9069;52.044;7.472;2023-07-13T08:58:43;32.00;55.60
17887;DHT22;9069;52.044;7.472;2023-07-13T09:03:50;31.90;56.20
17887;DHT22;9069;52.044;7.472;2023-07-13T09:06:23;31.90;55.40
17887;DHT22;9069;52.044;7.472;2023-07-13T09:09:05;31.90;55.70
17887;DHT22;9069;52.044;7.472;2023-07-13T09:11:49;31.80;55.60
17887;DHT22;9069;52.044;7.472;2023-07-13T09:17:12;31.70;55.30
17887;DHT22;9069;52.044;7.472;2023-07-13T09:19:40;31.70;55.20
17887;DHT22;9069;52.044;7.472;2023-07-13T09:22:12;31.60;55.60
17887;DHT22;9069;52.044;7.472;2023-07-13T09:25:23;31.60;55.40
17887;DHT22;9069;52.044;7.472;2023-07-13T09:27:52;31.60;55.00
17887;DHT22;9069;52.044;7.472;2023-07-13T09:30:45;31.60;55.30
17887;DHT22;9069;52.044;7.472;2023-07-13T09:33:14;31.60;55.10
17887;DHT22;9069;52.044;7.472;2023-07-13T09:35:42;31.60;55.10
17887;DHT22;9069;52.044;7.472;2023-07-13T09:41:03;31.40;54.40
17887;DHT22;9069;52.044;7.472;2023-07-13T09:43:36;31.20;54.10
17887;DHT22;9069;52.044;7.472;2023-07-13T09:46:03;31.10;54.30
17887;DHT22;9069;52.044;7.472;2023-07-13T09:48:35;30.90;54.30
17887;DHT22;9069;52.044;7.472;2023-07-13T09:51:15;30.70;54.40
17887;DHT22;9069;52.044;7.472;2023-07-13T09:53:43;30.50;55.50
17887;DHT22;9069;52.044;7.472;2023-07-13T09:56:21;30.40;55.70
17887;DHT22;9069;52.044;7.472;2023-07-13T09:58:49;30.40;56.00
17887;DHT22;9069;52.044;7.472;2023-07-13T10:01:15;30.40;56.30
17887;DHT22;9069;52.044;7.472;2023-07-13T10:03:57;30.40;56.30
17887;DHT22;9069;52.044;7.472;2023-07-13T10:06:24;30.40;56.70
17887;DHT22;9069;52.044;7.472;2023-07-13T10:08:55;30.50;55.80
17887;DHT22;9069;52.044;7.472;2023-07-13T10:11:27;30.40;55.60
17887;DHT22;9069;52.044;7.472;2023-07-13T10:14:17;30.40;55.40
17887;DHT22;9069;52.044;7.472;2023-07-13T10:16:45;30.30;55.30
17887;DHT22;9069;52.044;7.472;2023-07-13T10:19:17;30.20;55.10
17887;DHT22;9069;52.044;7.472;2023-07-13T10:22:00;30.10;54.90
17887;DHT22;9069;52.044;7.472;2023-07-13T10:24:33;30.00;55.20
17887;DHT22;9069;52.044;7.472;2023-07-13T10:29:37;29.80;55.80
17887;DHT22;9069;52.044;7.472;2023-07-13T10:32:10;29.80;56.20
17887;DHT22;9069;52.044;7.472;2023-07-13T10:34:40;29.80;56.80
17887;DHT22;9069;52.044;7.472;2023-07-13T10:37:17;29.90;56.70
17887;DHT22;9069;52.044;7.472;2023-07-13T10:39:45;30.00;56.40
17887;DHT22;9069;52.044;7.472;2023-07-13T10:42:25;30.00;56.60
17887;DHT22;9069;52.044;7.472;2023-07-13T10:44:53;30.10;56.30
17887;DHT22;9069;52.044;7.472;2023-07-13T10:47:20;30.20;56.50
17887;DHT22;9069;52.044;7.472;2023-07-13T10:49:50;30.30;56.10
17887;DHT22;9069;52.044;7.472;2023-07-13T10:55:34;30.30;55.30
17887;DHT22;9069;52.044;7.472;2023-07-13T10:58:28;30.30;55.10
17887;DHT22;9069;52.044;7.472;2023-07-13T11:01:15;30.30;55.00
17887;DHT22;9069;52.044;7.472;2023-07-13T11:03:50;30.20;55.50
17887;DHT22;9069;52.044;7.472;2023-07-13T11:06:39;30.20;55.20
17887;DHT22;9069;52.044;7.472;2023-07-13T11:09:36;30.20;55.00
17887;DHT22;9069;52.044;7.472;2023-07-13T11:15:05;30.20;55.00
17887;DHT22;9069;52.044;7.472;2023-07-13T11:17:36;30.20;55.00
17887;DHT22;9069;52.044;7.472;2023-07-13T11:22:47;30.10;54.60
17887;DHT22;9069;52.044;7.472;2023-07-13T11:25:24;30.10;54.30
17887;DHT22;9069;52.044;7.472;2023-07-13T11:28:17;30.00;54.30
17887;DHT22;9069;52.044;7.472;2023-07-13T11:33:25;29.90;54.10
17887;DHT22;9069;52.044;7.472;2023-07-13T11:38:37;29.80;54.30
17887;DHT22;9069;52.044;7.472;2023-07-13T11:41:26;29.80;54.20
17887;DHT22;9069;52.044;7.472;2023-07-13T11:44:07;29.80;54.40
17887;DHT22;9069;52.044;7.472;2023-07-13T11:46:34;29.80;54.30
17887;DHT22;9069;52.044;7.472;2023-07-13T11:49:01;29.70;54.60
17887;DHT22;9069;52.044;7.472;2023-07-13T11:51:36;29.70;54.40
17887;DHT22;9069;52.044;7.472;2023-07-13T11:54:12;29.70;54.20
17887;DHT22;9069;52.044;7.472;2023-07-13T11:56:41;29.70;54.20
17887;DHT22;9069;52.044;7.472;2023-07-13T11:59:12;29.70;54.10
17887;DHT22;9069;52.044;7.472;2023-07-13T12:01:46;29.60;53.80
17887;DHT22;9069;52.044;7.472;2023-07-13T12:04:29;29.60;53.30
17887;DHT22;9069;52.044;7.472;2023-07-13T12:07:15;29.50;53.40
17887;DHT22;9069;52.044;7.472;2023-07-13T12:09:43;29.40;53.40
17887;DHT22;9069;52.044;7.472;2023-07-13T12:12:14;29.30;53.60
17887;DHT22;9069;52.044;7.472;2023-07-13T12:14:43;29.10;53.50
17887;DHT22;9069;52.044;7.472;2023-07-13T12:17:19;29.00;53.90
17887;DHT22;9069;52.044;7.472;2023-07-13T12:19:48;28.80;54.40
17887;DHT22;9069;52.044;7.472;2023-07-13T12:22:17;28.60;54.70
17887;DHT22;9069;52.044;7.472;2023-07-13T12:24:45;28.50;55.30
17887;DHT22;9069;52.044;7.472;2023-07-13T12:27:25;28.30;55.40
17887;DHT22;9069;52.044;7.472;2023-07-13T12:30:02;28.20;56.20
17887;DHT22;9069;52.044;7.472;2023-07-13T12:32:29;28.10;56.40
17887;DHT22;9069;52.044;7.472;2023-07-13T12:35:15;28.10;56.70
17887;DHT22;9069;52.044;7.472;2023-07-13T12:37:43;28.00;57.20
17887;DHT22;9069;52.044;7.472;2023-07-13T12:40:21;28.00;57.00
17887;DHT22;9069;52.044;7.472;2023-07-13T12:42:53;28.00;57.30
17887;DHT22;9069;52.044;7.472;2023-07-13T12:45:24;28.00;57.00
17887;DHT22;9069;52.044;7.472;2023-07-13T12:48:03;28.00;57.00
17887;DHT22;9069;52.044;7.472;2023-07-13T12:50:38;28.00;57.00
17887;DHT22;9069;52.044;7.472;2023-07-13T12:53:15;28.00;57.30
17887;DHT22;9069;52.044;7.472;2023-07-13T12:55:48;28.00;57.00
17887;DHT22;9069;52.044;7.472;2023-07-13T12:58:28;28.00;57.00
17887;DHT22;9069;52.044;7.472;2023-07-13T13:00:57;27.90;57.20
17887;DHT22;9069;52.044;7.472;2023-07-13T13:04:00;27.90;57.40
17887;DHT22;9069;52.044;7.472;2023-07-13T13:06:29;27.90;58.10
17887;DHT22;9069;52.044;7.472;2023-07-13T13:08:58;27.90;57.50
17887;DHT22;9069;52.044;7.472;2023-07-13T13:11:27;27.90;57.70
17887;DHT22;9069;52.044;7.472;2023-07-13T13:13:54;27.90;57.10
17887;DHT22;9069;52.044;7.472;2023-07-13T13:16:33;28.00;56.90
17887;DHT22;9069;52.044;7.472;2023-07-13T13:19:20;28.00;56.60
17887;DHT22;9069;52.044;7.472;2023-07-13T13:21:49;28.00;56.70
17887;DHT22;9069;52.044;7.472;2023-07-13T13:24:22;27.90;56.50
17887;DHT22;9069;52.044;7.472;2023-07-13T13:26:50;27.90;56.10
17887;DHT22;9069;52.044;7.472;2023-07-13T13:29:23;27.90;55.80
17887;DHT22;9069;52.044;7.472;2023-07-13T13:31:54;27.80;55.50
17887;DHT22;9069;52.044;7.472;2023-07-13T13:34:23;27.70;55.30
17887;DHT22;9069;52.044;7.472;2023-07-13T13:36:51;27.60;55.30
17887;DHT22;9069;52.044;7.472;2023-07-13T13:39:25;27.50;55.40
17887;DHT22;9069;52.044;7.472;2023-07-13T13:41:53;27.50;55.50
17887;DHT22;9069;52.044;7.472;2023-07-13T13:44:21;27.30;55.40
17887;DHT22;9069;52.044;7.472;2023-07-13T13:46:53;27.20;55.50
17887;DHT22;9069;52.044;7.472;2023-07-13T13:49:27;27.10;55.60
17887;DHT22;9069;52.044;7.472;2023-07-13T13:51:56;27.10;56.00
17887;DHT22;9069;52.044;7.472;2023-07-13T13:54:24;27.00;56.00
17887;DHT22;9069;52.044;7.472;2023-07-13T13:56:52;26.90;56.30
17887;DHT22;9069;52.044;7.472;2023-07-13T13:59:19;26.80;56.30
17887;DHT22;9069;52.044;7.472;2023-07-13T14:01:47;26.70;56.50
17887;DHT22;9069;52.044;7.472;2023-07-13T14:04:18;26.60;57.40
17887;DHT22;9069;52.044;7.472;2023-07-13T14:06:45;26.50;57.00
17887;DHT22;9069;52.044;7.472;2023-07-13T14:09:16;26.40;56.90
17887;DHT22;9069;52.044;7.472;2023-07-13T14:11:45;26.40;57.10
17887;DHT22;9069;52.044;7.472;2023-07-13T14:14:22;26.30;57.10
17887;DHT22;9069;52.044;7.472;2023-07-13T14:16:51;26.20;57.10
17887;DHT22;9069;52.044;7.472;2023-07-13T14:19:22;26.10;57.20
17887;DHT22;9069;52.044;7.472;2023-07-13T14:21:50;26.10;57.40
17887;DHT22;9069;52.044;7.472;2023-07-13T14:24:19;26.00;57.50
17887;DHT22;9069;52.044;7.472;2023-07-13T14:26:46;25.90;57.90
17887;DHT22;9069;52.044;7.472;2023-07-13T14:29:16;25.80;57.90
17887;DHT22;9069;52.044;7.472;2023-07-13T14:31:48;25.70;58.10
17887;DHT22;9069;52.044;7.472;2023-07-13T14:34:15;25.70;58.10
17887;DHT22;9069;52.044;7.472;2023-07-13T14:36:46;25.70;58.50
17887;DHT22;9069;52.044;7.472;2023-07-13T14:39:19;25.60;58.90
17887;DHT22;9069;52.044;7.472;2023-07-13T14:41:54;25.60;59.60
17887;DHT22;9069;52.044;7.472;2023-07-13T14:44:27;25.60;59.60
17887;DHT22;9069;52.044;7.472;2023-07-13T14:46:57;25.60;60.20
17887;DHT22;9069;52.044;7.472;2023-07-13T14:49:42;25.70;60.10
17887;DHT22;9069;52.044;7.472;2023-07-13T14:52:18;25.70;60.20
17887;DHT22;9069;52.044;7.472;2023-07-13T14:54:45;25.70;60.10
17887;DHT22;9069;52.044;7.472;2023-07-13T14:57:15;25.70;60.00
17887;DHT22;9069;52.044;7.472;2023-07-13T14:59:42;25.70;60.20
17887;DHT22;9069;52.044;7.472;2023-07-13T15:02:17;25.80;60.90
17887;DHT22;9069;52.044;7.472;2023-07-13T15:04:45;25.80;61.60
17887;DHT22;9069;52.044;7.472;2023-07-13T15:07:12;25.70;61.60
17887;DHT22;9069;52.044;7.472;2023-07-13T15:09:42;25.80;61.60
17887;DHT22;9069;52.044;7.472;2023-07-13T15:12:09;25.80;61.70
17887;DHT22;9069;52.044;7.472;2023-07-13T15:14:36;25.80;61.30
17887;DHT22;9069;52.044;7.472;2023-07-13T15:17:03;25.80;61.10
17887;DHT22;9069;52.044;7.472;2023-07-13T15:19:30;25.80;61.10
17887;DHT22;9069;52.044;7.472;2023-07-13T15:21:58;25.80;61.50
17887;DHT22;9069;52.044;7.472;2023-07-13T15:24:25;25.80;61.40
17887;DHT22;9069;52.044;7.472;2023-07-13T15:26:51;25.80;61.50
17887;DHT22;9069;52.044;7.472;2023-07-13T15:29:18;25.90;61.50
17887;DHT22;9069;52.044;7.472;2023-07-13T15:31:45;25.90;61.00
17887;DHT22;9069;52.044;7.472;2023-07-13T15:34:15;25.90;60.00
17887;DHT22;9069;52.044;7.472;2023-07-13T15:36:43;25.90;59.20
17887;DHT22;9069;52.044;7.472;2023-07-13T15:39:16;25.90;59.00
17887;DHT22;9069;52.044;7.472;2023-07-13T15:41:44;25.90;58.70
17887;DHT22;9069;52.044;7.472;2023-07-13T15:44:28;25.90;58.20
17887;DHT22;9069;52.044;7.472;2023-07-13T15:46:56;25.90;58.10
17887;DHT22;9069;52.044;7.472;2023-07-13T15:49:23;25.90;58.10
17887;DHT22;9069;52.044;7.472;2023-07-13T15:51:50;25.90;57.80
17887;DHT22;9069;52.044;7.472;2023-07-13T15:54:18;25.90;57.60
17887;DHT22;9069;52.044;7.472;2023-07-13T15:56:51;25.90;57.10
17887;DHT22;9069;52.044;7.472;2023-07-13T15:59:19;25.90;57.30
17887;DHT22;9069;52.044;7.472;2023-07-13T16:01:46;25.90;57.60
17887;DHT22;9069;52.044;7.472;2023-07-13T16:04:15;25.90;57.80
17887;DHT22;9069;52.044;7.472;2023-07-13T16:06:44;25.90;58.00
17887;DHT22;9069;52.044;7.472;2023-07-13T16:09:20;25.90;58.20
17887;DHT22;9069;52.044;7.472;2023-07-13T16:11:49;25.90;58.50
17887;DHT22;9069;52.044;7.472;2023-07-13T16:14:16;25.90;58.30
17887;DHT22;9069;52.044;7.472;2023-07-13T16:16:44;25.90;58.30
17887;DHT22;9069;52.044;7.472;2023-07-13T16:19:12;25.90;58.30
17887;DHT22;9069;52.044;7.472;2023-07-13T16:21:44;25.90;58.30
17887;DHT22;9069;52.044;7.472;2023-07-13T16:24:21;25.90;58.20
17887;DHT22;9069;52.044;7.472;2023-07-13T16:26:49;25.90;58.10
17887;DHT22;9069;52.044;7.472;2023-07-13T16:29:17;25.90;58.10
17887;DHT22;9069;52.044;7.472;2023-07-13T16:32:21;25.90;58.20
17887;DHT22;9069;52.044;7.472;2023-07-13T16:34:48;25.90;58.30